Time;durP1;ratioP1;P1;durP2;ratioP2;P2;SDS_P1;SDS_P2;PMS_P1;PMS_P2;Temp;Humidity;BMP_temperature;BMP_pressure;BME280_temperature;BME280_humidity;BME280_pressure;Samples;Min_cycle;Max_cycle;Signal;HPM_P1;HPM_P2
2024/04/06 00:01:32;;;;;;;16.95;6.12;;;;;;;;;;4438280;32;20024;-67
2024/04/06 00:03:58;;;;;;;22.55;6.70;;;;;;;;;;4438616;32;20060;-67
2024/04/06 00:06:23;;;;;;;20.45;6.07;;;;;;;;;;4451452;32;20113;-65
2024/04/06 00:08:50;;;;;;;21.00;6.97;;;;;;;;;;4451433;32;20094;-65
2024/04/06 00:11:15;;;;;;;22.98;6.93;;;;;;;;;;4453186;32;20161;-65
2024/04/06 00:13:40;;;;;;;24.45;8.10;;;;;;;;;;4433673;32;20069;-65
2024/04/06 00:16:05;;;;;;;21.35;8.27;;;;;;;;;;4436775;32;20018;-65
2024/04/06 00:18:30;;;;;;;18.23;7.80;;;;;;;;;;4444644;32;20053;-66
2024/04/06 00:20:56;;;;;;;24.42;9.20;;;;;;;;;;4451303;32;20023;-66
2024/04/06 00:23:21;;;;;;;24.75;9.10;;;;;;;;;;4445905;32;20062;-65
2024/04/06 00:25:46;;;;;;;18.98;8.63;;;;;;;;;;4437351;32;20067;-65
2024/04/06 00:28:11;;;;;;;16.25;7.53;;;;;;;;;;4433595;32;20082;-66
2024/04/06 00:30:37;;;;;;;27.73;9.30;;;;;;;;;;4437981;32;20048;-66
2024/04/06 00:33:02;;;;;;;25.42;9.27;;;;;;;;;;4441643;32;20029;-67
2024/04/06 00:35:27;;;;;;;22.30;9.55;;;;;;;;;;4446393;32;20384;-66
2024/04/06 00:37:53;;;;;;;31.00;10.13;;;;;;;;;;4428612;32;20304;-65
2024/04/06 00:40:18;;;;;;;21.83;9.73;;;;;;;;;;4452321;32;20025;-65
2024/04/06 00:42:44;;;;;;;20.83;9.45;;;;;;;;;;4448745;32;20029;-65
2024/04/06 00:45:09;;;;;;;25.02;8.80;;;;;;;;;;4440890;32;20056;-66
2024/04/06 00:47:35;;;;;;;28.33;10.75;;;;;;;;;;4429154;32;20457;-66
2024/04/06 00:50:01;;;;;;;21.95;9.13;;;;;;;;;;4452311;32;20059;-66
2024/04/06 00:52:26;;;;;;;23.52;8.80;;;;;;;;;;4448489;32;20029;-66
2024/04/06 00:54:51;;;;;;;23.12;11.40;;;;;;;;;;4435790;32;20406;-67
2024/04/06 00:57:16;;;;;;;22.80;9.02;;;;;;;;;;4436899;32;20056;-66
2024/04/06 00:59:42;;;;;;;17.67;8.20;;;;;;;;;;4422187;32;20452;-67
2024/04/06 01:02:07;;;;;;;21.40;9.35;;;;;;;;;;4443982;32;20029;-66
2024/04/06 01:04:32;;;;;;;22.37;8.70;;;;;;;;;;4444220;32;20397;-67
2024/04/06 01:06:58;;;;;;;19.48;9.05;;;;;;;;;;4450816;32;20056;-65
2024/04/06 01:09:23;;;;;;;23.70;10.15;;;;;;;;;;4444388;32;20025;-65
2024/04/06 01:11:49;;;;;;;17.67;9.85;;;;;;;;;;4431669;32;20040;-67
2024/04/06 01:14:14;;;;;;;22.62;9.18;;;;;;;;;;4422175;32;20043;-65
2024/04/06 01:16:39;;;;;;;20.10;9.55;;;;;;;;;;4436439;32;20021;-66
2024/04/06 01:19:04;;;;;;;22.30;10.10;;;;;;;;;;4445959;32;20380;-66
2024/04/06 01:21:30;;;;;;;19.77;10.50;;;;;;;;;;4436241;32;20041;-66
2024/04/06 01:23:55;;;;;;;23.48;10.27;;;;;;;;;;4438013;32;20043;-66
2024/04/06 01:26:21;;;;;;;20.25;11.48;;;;;;;;;;4446314;32;20226;-65
2024/04/06 01:28:46;;;;;;;16.15;10.00;;;;;;;;;;4436696;32;20367;-66
2024/04/06 01:31:11;;;;;;;21.15;10.85;;;;;;;;;;4435198;32;20026;-67
2024/04/06 01:33:38;;;;;;;25.75;11.38;;;;;;;;;;4436914;32;20214;-66
2024/04/06 01:36:03;;;;;;;15.48;9.73;;;;;;;;;;4450576;32;20429;-66
2024/04/06 01:38:28;;;;;;;17.02;9.90;;;;;;;;;;4449914;32;20025;-66
2024/04/06 01:40:53;;;;;;;18.67;11.10;;;;;;;;;;4449459;32;20034;-67
2024/04/06 01:43:19;;;;;;;16.70;9.38;;;;;;;;;;4450404;32;20022;-66
2024/04/06 01:45:44;;;;;;;16.40;9.75;;;;;;;;;;4451276;32;20037;-66
2024/04/06 01:48:09;;;;;;;10.65;9.23;;;;;;;;;;4437988;32;20044;-66
2024/04/06 01:50:34;;;;;;;15.05;9.50;;;;;;;;;;4449481;32;20412;-67
2024/04/06 01:52:59;;;;;;;17.37;9.43;;;;;;;;;;4451707;32;20056;-67
2024/04/06 01:55:24;;;;;;;16.08;9.25;;;;;;;;;;4444271;32;20022;-66
2024/04/06 01:57:50;;;;;;;12.77;9.75;;;;;;;;;;4434411;32;20021;-67
2024/04/06 02:00:15;;;;;;;15.02;9.63;;;;;;;;;;4435715;32;20022;-65
2024/04/06 02:02:40;;;;;;;16.85;10.25;;;;;;;;;;4444478;32;20203;-67
2024/04/06 02:05:05;;;;;;;18.15;10.50;;;;;;;;;;4454291;32;20025;-66
2024/04/06 02:07:31;;;;;;;13.38;10.70;;;;;;;;;;4453828;32;20106;-66
2024/04/06 02:09:56;;;;;;;11.00;9.45;;;;;;;;;;4454952;32;20021;-66
2024/04/06 02:12:21;;;;;;;16.05;11.32;;;;;;;;;;4446681;32;20077;-67
2024/04/06 02:14:47;;;;;;;14.55;10.90;;;;;;;;;;4438516;32;20029;-68
2024/04/06 02:17:13;;;;;;;14.43;10.55;;;;;;;;;;4454557;32;20025;-66
2024/04/06 02:19:38;;;;;;;14.07;9.95;;;;;;;;;;4453000;32;20160;-66
2024/04/06 02:22:03;;;;;;;14.07;10.18;;;;;;;;;;4438841;32;20029;-66
2024/04/06 02:24:28;;;;;;;13.07;8.93;;;;;;;;;;4452906;32;20048;-66
2024/04/06 02:26:54;;;;;;;13.90;10.00;;;;;;;;;;4436779;32;20413;-66
2024/04/06 02:29:19;;;;;;;13.93;9.38;;;;;;;;;;4437627;32;20075;-65
2024/04/06 02:31:44;;;;;;;12.52;9.20;;;;;;;;;;4441414;32;20456;-67
2024/04/06 02:34:09;;;;;;;16.17;9.95;;;;;;;;;;4453519;32;20406;-66
2024/04/06 02:36:35;;;;;;;13.20;10.07;;;;;;;;;;4452520;32;20333;-66
2024/04/06 02:39:00;;;;;;;11.68;9.98;;;;;;;;;;4454238;32;20068;-66
2024/04/06 02:41:26;;;;;;;20.30;10.38;;;;;;;;;;4435190;32;20048;-66
2024/04/06 02:43:51;;;;;;;12.23;10.20;;;;;;;;;;4438883;32;20057;-66
2024/04/06 02:46:16;;;;;;;11.45;10.30;;;;;;;;;;4439229;32;20153;-67
2024/04/06 02:48:41;;;;;;;15.63;8.93;;;;;;;;;;4438435;32;20107;-66
2024/04/06 02:51:07;;;;;;;14.35;10.20;;;;;;;;;;4439197;32;20078;-66
2024/04/06 02:53:32;;;;;;;21.67;10.25;;;;;;;;;;4453803;32;20048;-66
2024/04/06 02:55:57;;;;;;;14.87;9.27;;;;;;;;;;4451621;32;20033;-67
2024/04/06 02:58:23;;;;;;;13.38;9.13;;;;;;;;;;4432415;32;20465;-66
2024/04/06 03:00:48;;;;;;;13.20;9.40;;;;;;;;;;4454292;32;20030;-67
2024/04/06 03:03:14;;;;;;;13.65;8.85;;;;;;;;;;4451118;32;20041;-66
2024/04/06 03:05:39;;;;;;;17.00;10.43;;;;;;;;;;4451648;32;20047;-66
2024/04/06 03:08:04;;;;;;;10.23;7.65;;;;;;;;;;4453381;32;20055;-66
2024/04/06 03:10:29;;;;;;;11.35;8.35;;;;;;;;;;4452561;32;20026;-67
2024/04/06 03:12:54;;;;;;;15.82;11.32;;;;;;;;;;4453704;32;20033;-67
2024/04/06 03:15:20;;;;;;;9.85;8.15;;;;;;;;;;4441867;32;20145;-66
2024/04/06 03:17:45;;;;;;;16.02;8.35;;;;;;;;;;4437484;32;20033;-66
2024/04/06 03:20:10;;;;;;;11.10;7.75;;;;;;;;;;4441761;32;20079;-66
2024/04/06 03:22:35;;;;;;;14.10;8.68;;;;;;;;;;4442576;32;20138;-66
2024/04/06 03:25:00;;;;;;;12.43;8.98;;;;;;;;;;4444558;32;20078;-65
2024/04/06 03:27:26;;;;;;;16.75;8.02;;;;;;;;;;4436626;32;20094;-66
2024/04/06 03:29:51;;;;;;;13.05;8.38;;;;;;;;;;4438245;32;20462;-65
2024/04/06 03:32:16;;;;;;;13.13;8.82;;;;;;;;;;4442574;32;20021;-65
2024/04/06 03:34:41;;;;;;;12.85;8.88;;;;;;;;;;4453531;32;20037;-67
2024/04/06 03:37:07;;;;;;;16.83;8.15;;;;;;;;;;4452422;32;20082;-66
2024/04/06 03:39:32;;;;;;;14.30;7.85;;;;;;;;;;4423418;32;20022;-65
2024/04/06 03:41:57;;;;;;;12.55;7.85;;;;;;;;;;4437399;32;20053;-65
2024/04/06 03:44:22;;;;;;;11.20;7.40;;;;;;;;;;4436378;32;20048;-66
2024/04/06 03:46:48;;;;;;;13.25;8.18;;;;;;;;;;4438647;32;20155;-66
2024/04/06 03:49:13;;;;;;;13.15;8.52;;;;;;;;;;4437865;32;20026;-66
2024/04/06 03:51:39;;;;;;;17.33;8.75;;;;;;;;;;4436597;32;20041;-66
2024/04/06 03:54:04;;;;;;;16.12;8.65;;;;;;;;;;4436275;32;20435;-65
2024/04/06 03:56:29;;;;;;;11.23;8.80;;;;;;;;;;4436373;32;20026;-66
2024/04/06 03:58:54;;;;;;;15.50;9.48;;;;;;;;;;4436512;32;20021;-66
2024/04/06 04:01:19;;;;;;;11.82;10.00;;;;;;;;;;4436210;32;20343;-66
2024/04/06 04:03:45;;;;;;;11.80;8.95;;;;;;;;;;4449206;32;20086;-66
2024/04/06 04:06:10;;;;;;;11.65;8.52;;;;;;;;;;4452068;32;20029;-66
2024/04/06 04:08:35;;;;;;;17.45;8.95;;;;;;;;;;4442115;32;20365;-65
2024/04/06 04:11:00;;;;;;;14.68;8.85;;;;;;;;;;4451103;32;20021;-66
2024/04/06 04:13:25;;;;;;;13.85;8.98;;;;;;;;;;4441755;32;20062;-66
2024/04/06 04:15:51;;;;;;;14.75;9.05;;;;;;;;;;4437521;32;20091;-66
2024/04/06 04:18:16;;;;;;;13.35;8.38;;;;;;;;;;4446259;32;20108;-66
2024/04/06 04:20:42;;;;;;;14.10;8.60;;;;;;;;;;4447465;32;20433;-66
2024/04/06 04:23:07;;;;;;;13.48;7.97;;;;;;;;;;4446176;32;20438;-66
2024/04/06 04:25:32;;;;;;;13.05;7.43;;;;;;;;;;4450011;32;20088;-66
2024/04/06 04:27:58;;;;;;;11.80;8.98;;;;;;;;;;4437149;32;20038;-66
2024/04/06 04:30:24;;;;;;;12.75;8.10;;;;;;;;;;4437382;32;20105;-66
2024/04/06 04:32:49;;;;;;;10.05;6.50;;;;;;;;;;4443230;32;20327;-67
2024/04/06 04:35:14;;;;;;;9.20;7.62;;;;;;;;;;4434415;32;20075;-66
2024/04/06 04:37:39;;;;;;;12.60;8.07;;;;;;;;;;4437039;32;20147;-66
2024/04/06 04:40:05;;;;;;;12.88;7.28;;;;;;;;;;4437353;32;20360;-67
2024/04/06 04:42:30;;;;;;;10.98;6.50;;;;;;;;;;4437229;32;20056;-66
2024/04/06 04:45:00;;;;;;;16.12;7.40;;;;;;;;;;4436580;32;20060;-67
2024/04/06 04:47:25;;;;;;;10.35;7.53;;;;;;;;;;4436678;32;20041;-67
2024/04/06 04:49:51;;;;;;;16.10;6.70;;;;;;;;;;4436580;32;20125;-66
2024/04/06 04:52:16;;;;;;;12.77;7.32;;;;;;;;;;4436144;32;20055;-66
2024/04/06 04:54:41;;;;;;;13.10;7.95;;;;;;;;;;4435777;32;20394;-66
2024/04/06 04:57:06;;;;;;;12.20;6.85;;;;;;;;;;4437261;32;20464;-67
2024/04/06 04:59:31;;;;;;;13.95;6.18;;;;;;;;;;4437138;32;20038;-67
2024/04/06 05:01:57;;;;;;;10.43;6.78;;;;;;;;;;4447390;32;20025;-65
2024/04/06 05:04:22;;;;;;;17.92;7.55;;;;;;;;;;4437907;32;20366;-66
2024/04/06 05:06:47;;;;;;;13.25;7.28;;;;;;;;;;4451419;32;20335;-67
2024/04/06 05:09:15;;;;;;;9.38;6.95;;;;;;;;;;4447637;32;20093;-66
2024/04/06 05:11:41;;;;;;;11.07;7.12;;;;;;;;;;4439713;32;20459;-66
2024/04/06 05:14:06;;;;;;;14.63;7.00;;;;;;;;;;4425249;32;20091;-65
2024/04/06 05:16:31;;;;;;;9.75;7.25;;;;;;;;;;4435449;32;20087;-66
2024/04/06 05:18:56;;;;;;;11.10;6.97;;;;;;;;;;4444512;32;20349;-67
2024/04/06 05:21:24;;;;;;;9.95;6.97;;;;;;;;;;4451745;32;20025;-67
2024/04/06 05:23:49;;;;;;;11.38;7.35;;;;;;;;;;4428424;32;20046;-66
2024/04/06 05:26:15;;;;;;;8.32;7.05;;;;;;;;;;4434810;32;20030;-66
2024/04/06 05:28:40;;;;;;;13.07;7.70;;;;;;;;;;4441145;32;20052;-66
2024/04/06 05:31:05;;;;;;;13.85;7.57;;;;;;;;;;4450968;32;20045;-65
2024/04/06 05:33:30;;;;;;;8.10;6.12;;;;;;;;;;4449574;32;20025;-66
2024/04/06 05:35:55;;;;;;;11.75;7.10;;;;;;;;;;4450062;32;20037;-67
2024/04/06 05:38:21;;;;;;;12.20;8.18;;;;;;;;;;4438798;32;20077;-67
2024/04/06 05:40:47;;;;;;;11.93;7.18;;;;;;;;;;4433503;32;20045;-67
2024/04/06 05:43:12;;;;;;;10.43;7.20;;;;;;;;;;4443653;32;20045;-67
2024/04/06 05:45:38;;;;;;;11.98;7.28;;;;;;;;;;4449934;32;20034;-67
2024/04/06 05:48:04;;;;;;;14.40;7.93;;;;;;;;;;4440847;32;20060;-66
2024/04/06 05:50:30;;;;;;;14.60;7.90;;;;;;;;;;4435996;32;20040;-67
2024/04/06 05:52:55;;;;;;;9.93;6.40;;;;;;;;;;4443995;32;20426;-65
2024/04/06 05:55:20;;;;;;;12.63;6.87;;;;;;;;;;4447768;32;20051;-66
2024/04/06 05:57:46;;;;;;;10.13;6.30;;;;;;;;;;4435014;32;20323;-66
2024/04/06 06:00:11;;;;;;;11.40;6.43;;;;;;;;;;4435924;32;20091;-66
2024/04/06 06:02:36;;;;;;;11.52;6.05;;;;;;;;;;4435893;32;20327;-67
2024/04/06 06:05:02;;;;;;;8.30;6.20;;;;;;;;;;4434777;32;20160;-66
2024/04/06 06:07:27;;;;;;;10.20;6.00;;;;;;;;;;4450702;32;20029;-65
2024/04/06 06:09:52;;;;;;;9.23;6.22;;;;;;;;;;4449623;32;20025;-65
2024/04/06 06:12:19;;;;;;;8.75;5.50;;;;;;;;;;4423830;32;20030;-65
2024/04/06 06:14:44;;;;;;;11.35;5.97;;;;;;;;;;4435523;32;20113;-65
2024/04/06 06:17:09;;;;;;;10.68;5.20;;;;;;;;;;4446878;32;20389;-74
2024/04/06 06:19:35;;;;;;;8.70;5.20;;;;;;;;;;4429898;32;20025;-66
2024/04/06 06:22:00;;;;;;;9.30;5.05;;;;;;;;;;4437742;32;20045;-66
2024/04/06 06:24:25;;;;;;;5.57;4.30;;;;;;;;;;4437232;32;20026;-68
2024/04/06 06:26:50;;;;;;;6.10;4.55;;;;;;;;;;4436892;32;20369;-66
2024/04/06 06:29:15;;;;;;;8.07;4.32;;;;;;;;;;4437595;32;20056;-66
2024/04/06 06:31:40;;;;;;;10.82;3.90;;;;;;;;;;4434663;32;20241;-67
2024/04/06 06:34:06;;;;;;;7.50;4.00;;;;;;;;;;4450123;32;20059;-66
2024/04/06 06:36:31;;;;;;;5.75;3.65;;;;;;;;;;4450267;32;20076;-66
2024/04/06 06:38:57;;;;;;;6.53;3.75;;;;;;;;;;4449924;32;20063;-66
2024/04/06 06:41:23;;;;;;;6.80;4.35;;;;;;;;;;4451092;32;20142;-66
2024/04/06 06:43:48;;;;;;;10.45;4.72;;;;;;;;;;4450547;32;20437;-66
2024/04/06 06:46:13;;;;;;;6.47;4.45;;;;;;;;;;4450779;32;20421;-66
2024/04/06 06:48:38;;;;;;;11.45;3.70;;;;;;;;;;4450818;32;20119;-65
2024/04/06 06:51:04;;;;;;;6.45;3.80;;;;;;;;;;4451252;32;20029;-65
2024/04/06 06:53:29;;;;;;;6.87;4.12;;;;;;;;;;4440404;32;20060;-65
2024/04/06 06:55:54;;;;;;;7.93;6.70;;;;;;;;;;4451760;32;20048;-66
2024/04/06 06:58:19;;;;;;;5.93;4.07;;;;;;;;;;4448876;32;20025;-66
2024/04/06 07:00:45;;;;;;;7.35;3.97;;;;;;;;;;4438016;32;20083;-66
2024/04/06 07:03:10;;;;;;;5.28;3.45;;;;;;;;;;4446566;32;20382;-65
2024/04/06 07:05:35;;;;;;;5.70;4.20;;;;;;;;;;4450781;32;20052;-65
2024/04/06 07:08:01;;;;;;;9.93;4.20;;;;;;;;;;4452055;32;20106;-65
2024/04/06 07:10:26;;;;;;;14.13;4.00;;;;;;;;;;4443788;32;20217;-65
2024/04/06 07:12:51;;;;;;;7.18;3.92;;;;;;;;;;4450789;32;20053;-66
2024/04/06 07:15:16;;;;;;;9.60;4.35;;;;;;;;;;4442332;32;20026;-66
2024/04/06 07:17:42;;;;;;;8.80;4.30;;;;;;;;;;4438289;32;20060;-66
2024/04/06 07:20:08;;;;;;;5.10;3.50;;;;;;;;;;4438486;32;20034;-67
2024/04/06 07:22:33;;;;;;;5.72;3.45;;;;;;;;;;4424430;32;20048;-66
2024/04/06 07:24:58;;;;;;;6.65;3.72;;;;;;;;;;4438756;32;20026;-66
2024/04/06 07:27:24;;;;;;;8.65;3.83;;;;;;;;;;4438909;32;20055;-66
2024/04/06 07:29:49;;;;;;;16.87;4.15;;;;;;;;;;4442217;32;20034;-66
2024/04/06 07:32:14;;;;;;;5.97;3.40;;;;;;;;;;4437279;32;20021;-65
2024/04/06 07:34:39;;;;;;;7.47;3.55;;;;;;;;;;4437374;32;20030;-66
2024/04/06 07:37:05;;;;;;;9.65;3.25;;;;;;;;;;4437567;32;20025;-66
2024/04/06 07:39:30;;;;;;;7.87;3.72;;;;;;;;;;4453140;32;20071;-66
2024/04/06 07:41:55;;;;;;;11.38;4.62;;;;;;;;;;4451226;32;20022;-67
2024/04/06 07:44:20;;;;;;;6.30;3.55;;;;;;;;;;4424490;32;20108;-66
2024/04/06 07:46:46;;;;;;;6.65;3.25;;;;;;;;;;4436151;32;20038;-65
2024/04/06 07:49:11;;;;;;;5.43;3.12;;;;;;;;;;4448073;32;20073;-65
2024/04/06 07:51:36;;;;;;;7.75;3.60;;;;;;;;;;4451116;32;20116;-67
2024/04/06 07:54:01;;;;;;;5.43;3.15;;;;;;;;;;4443120;32;20061;-67
2024/04/06 07:56:26;;;;;;;6.45;3.30;;;;;;;;;;4435976;32;20409;-66
2024/04/06 07:58:52;;;;;;;7.53;3.50;;;;;;;;;;4437181;32;20087;-67
2024/04/06 08:01:17;;;;;;;8.60;3.50;;;;;;;;;;4435792;32;20034;-67
2024/04/06 08:03:43;;;;;;;6.28;3.47;;;;;;;;;;4437560;32;20076;-67
2024/04/06 08:06:08;;;;;;;10.98;4.70;;;;;;;;;;4443214;32;20096;-66
2024/04/06 08:08:34;;;;;;;11.63;3.95;;;;;;;;;;4436277;32;20089;-66
2024/04/06 08:11:00;;;;;;;8.95;3.90;;;;;;;;;;4437418;32;20080;-65
2024/04/06 08:13:25;;;;;;;5.70;3.30;;;;;;;;;;4429090;32;20018;-67
2024/04/06 08:15:50;;;;;;;7.28;3.20;;;;;;;;;;4421409;32;20223;-66
2024/04/06 08:18:15;;;;;;;6.97;3.37;;;;;;;;;;4436004;32;20017;-67
2024/04/06 08:20:41;;;;;;;11.05;4.15;;;;;;;;;;4437182;32;20570;-67
2024/04/06 08:23:06;;;;;;;7.32;3.40;;;;;;;;;;4437047;32;20080;-67
2024/04/06 08:25:31;;;;;;;9.00;3.85;;;;;;;;;;4435856;32;20065;-66
2024/04/06 08:27:56;;;;;;;5.85;2.97;;;;;;;;;;4435512;32;20088;-67
2024/04/06 08:30:22;;;;;;;5.68;3.17;;;;;;;;;;4436019;32;20090;-67
2024/04/06 08:32:54;;;;;;;12.32;4.70;;;;;;;;;;4436908;32;20068;-67
2024/04/06 08:35:19;;;;;;;8.73;3.37;;;;;;;;;;4420895;32;20457;-67
2024/04/06 08:37:44;;;;;;;7.18;3.20;;;;;;;;;;4436106;32;20025;-66
2024/04/06 08:40:13;;;;;;;4.47;2.60;;;;;;;;;;4435443;32;20093;-66
2024/04/06 08:42:41;;;;;;;6.90;3.20;;;;;;;;;;4432184;32;20097;-67
2024/04/06 08:45:10;;;;;;;6.75;3.17;;;;;;;;;;4436047;32;20030;-67
2024/04/06 08:47:36;;;;;;;10.60;4.20;;;;;;;;;;4436603;32;20033;-67
2024/04/06 08:50:05;;;;;;;7.30;3.28;;;;;;;;;;4437081;32;20025;-66
2024/04/06 08:52:30;;;;;;;5.70;2.92;;;;;;;;;;4450888;32;20117;-66
2024/04/06 08:54:56;;;;;;;7.68;2.97;;;;;;;;;;4451346;32;20021;-67
2024/04/06 08:57:21;;;;;;;7.18;2.87;;;;;;;;;;4432927;32;20042;-66
2024/04/06 08:59:46;;;;;;;6.65;3.08;;;;;;;;;;4435746;32;20312;-67
2024/04/06 09:02:11;;;;;;;11.68;3.30;;;;;;;;;;4436900;32;20103;-67
2024/04/06 09:04:37;;;;;;;6.22;3.45;;;;;;;;;;4445378;32;20029;-67
2024/04/06 09:07:02;;;;;;;4.53;2.78;;;;;;;;;;4433134;32;20087;-66
2024/04/06 09:09:27;;;;;;;6.18;2.85;;;;;;;;;;4435664;32;20066;-66
2024/04/06 09:11:52;;;;;;;5.50;2.35;;;;;;;;;;4440459;32;20531;-65
2024/04/06 09:14:18;;;;;;;8.45;4.07;;;;;;;;;;4436876;32;20051;-67
2024/04/06 09:16:43;;;;;;;4.78;2.97;;;;;;;;;;4435904;32;20038;-66
2024/04/06 09:19:09;;;;;;;5.22;2.50;;;;;;;;;;4442150;32;20093;-67
2024/04/06 09:21:34;;;;;;;7.10;3.25;;;;;;;;;;4436510;32;20033;-66
2024/04/06 09:24:00;;;;;;;6.70;2.67;;;;;;;;;;4436461;32;20025;-67
2024/04/06 09:26:31;;;;;;;10.15;2.92;;;;;;;;;;4435303;32;20411;-66
2024/04/06 09:28:56;;;;;;;4.68;2.20;;;;;;;;;;4422177;32;20061;-67
2024/04/06 09:31:23;;;;;;;5.82;2.50;;;;;;;;;;4437146;32;20095;-67
2024/04/06 09:33:55;;;;;;;5.82;2.37;;;;;;;;;;4436021;32;20051;-67
2024/04/06 09:36:21;;;;;;;7.20;2.85;;;;;;;;;;4447991;32;20092;-68
2024/04/06 09:38:50;;;;;;;8.10;2.62;;;;;;;;;;4450200;32;20033;-67
2024/04/06 09:41:19;;;;;;;6.80;2.80;;;;;;;;;;4451016;32;20379;-67
2024/04/06 09:43:45;;;;;;;6.22;2.47;;;;;;;;;;4451276;32;20033;-67
2024/04/06 09:46:11;;;;;;;6.18;3.03;;;;;;;;;;4448092;32;20438;-68
2024/04/06 09:48:37;;;;;;;4.97;2.30;;;;;;;;;;4442823;32;20033;-67
2024/04/06 09:51:03;;;;;;;8.80;2.62;;;;;;;;;;4436072;32;20073;-67
2024/04/06 09:53:29;;;;;;;8.23;2.75;;;;;;;;;;4450351;32;20059;-66
2024/04/06 09:55:54;;;;;;;6.32;2.95;;;;;;;;;;4443585;32;20072;-67
2024/04/06 09:58:28;;;;;;;5.00;2.17;;;;;;;;;;4434499;32;20048;-68
2024/04/06 10:00:53;;;;;;;9.20;2.58;;;;;;;;;;4433101;32;20108;-67
2024/04/06 10:03:20;;;;;;;7.90;2.40;;;;;;;;;;4425526;32;20044;-66
2024/04/06 10:05:45;;;;;;;6.95;2.12;;;;;;;;;;4422096;32;20046;-67
2024/04/06 10:08:15;;;;;;;6.20;2.65;;;;;;;;;;4444538;32;20067;-67
2024/04/06 10:10:44;;;;;;;9.05;2.22;;;;;;;;;;4449482;32;20029;-68
2024/04/06 10:13:09;;;;;;;4.50;2.03;;;;;;;;;;4448845;32;20071;-67
2024/04/06 10:15:34;;;;;;;4.47;2.45;;;;;;;;;;4424429;32;20411;-67
2024/04/06 10:18:00;;;;;;;6.05;2.42;;;;;;;;;;4436601;32;20086;-67
2024/04/06 10:20:26;;;;;;;5.37;2.70;;;;;;;;;;4449610;32;20365;-67
2024/04/06 10:22:55;;;;;;;5.05;2.15;;;;;;;;;;4451338;32;20064;-68
2024/04/06 10:25:30;;;;;;;6.90;2.67;;;;;;;;;;4428372;32;20507;-68
2024/04/06 10:27:59;;;;;;;11.25;10.25;;;;;;;;;;4424346;32;20029;-66
2024/04/06 10:30:25;;;;;;;11.15;2.12;;;;;;;;;;4438644;32;20456;-67
2024/04/06 10:32:50;;;;;;;2.45;1.62;;;;;;;;;;4437335;32;20430;-66
2024/04/06 10:35:15;;;;;;;5.97;3.00;;;;;;;;;;4452449;32;20055;-66
2024/04/06 10:37:40;;;;;;;4.28;2.22;;;;;;;;;;4437184;32;20030;-68
2024/04/06 10:40:07;;;;;;;4.82;2.33;;;;;;;;;;4448241;32;20029;-68
2024/04/06 10:42:32;;;;;;;6.10;2.00;;;;;;;;;;4437101;32;20061;-66
2024/04/06 10:44:57;;;;;;;4.68;2.40;;;;;;;;;;4438095;32;20026;-68
2024/04/06 10:47:24;;;;;;;5.57;1.80;;;;;;;;;;4436440;32;20042;-67
2024/04/06 10:49:53;;;;;;;4.03;2.00;;;;;;;;;;4449392;32;20571;-67
2024/04/06 10:52:19;;;;;;;4.47;1.87;;;;;;;;;;4437814;32;20472;-67
2024/04/06 10:54:44;;;;;;;6.82;2.40;;;;;;;;;;4449507;32;20026;-67
2024/04/06 10:57:10;;;;;;;2.97;1.75;;;;;;;;;;4451778;32;20114;-68
2024/04/06 10:59:35;;;;;;;4.37;1.58;;;;;;;;;;4440094;32;20374;-66
2024/04/06 11:02:00;;;;;;;5.28;3.60;;;;;;;;;;4437797;32;20420;-67
2024/04/06 11:04:26;;;;;;;5.78;1.90;;;;;;;;;;4438103;32;20053;-67
2024/04/06 11:06:51;;;;;;;4.57;1.70;;;;;;;;;;4438046;32;20174;-68
2024/04/06 11:09:16;;;;;;;4.47;2.60;;;;;;;;;;4437836;32;20093;-67
2024/04/06 11:11:42;;;;;;;5.57;2.35;;;;;;;;;;4437892;32;20314;-67
2024/04/06 11:14:07;;;;;;;3.72;1.70;;;;;;;;;;4438962;32;20025;-67
2024/04/06 11:16:33;;;;;;;6.85;2.78;;;;;;;;;;4436087;32;20086;-68
2024/04/06 11:18:58;;;;;;;4.87;4.37;;;;;;;;;;4431165;32;20029;-68
2024/04/06 11:21:23;;;;;;;3.30;1.95;;;;;;;;;;4451462;32;20025;-69
2024/04/06 11:23:49;;;;;;;2.12;1.60;;;;;;;;;;4444592;32;20420;-67
2024/04/06 11:26:21;;;;;;;3.85;1.65;;;;;;;;;;4437428;32;20018;-67
2024/04/06 11:28:46;;;;;;;8.02;4.47;;;;;;;;;;4431361;32;20145;-67
2024/04/06 11:31:12;;;;;;;4.60;1.45;;;;;;;;;;4432679;32;20102;-67
2024/04/06 11:33:38;;;;;;;4.57;3.10;;;;;;;;;;4450702;32;20029;-67
2024/04/06 11:36:03;;;;;;;4.70;1.85;;;;;;;;;;4451571;32;20379;-67
2024/04/06 11:38:29;;;;;;;3.25;2.00;;;;;;;;;;4451324;32;20044;-68
2024/04/06 11:40:56;;;;;;;4.37;1.80;;;;;;;;;;4452719;32;20477;-66
2024/04/06 11:43:21;;;;;;;8.57;2.55;;;;;;;;;;4447193;32;20047;-66
2024/04/06 11:45:46;;;;;;;4.25;2.12;;;;;;;;;;4452326;32;20029;-69
2024/04/06 11:48:13;;;;;;;3.10;1.75;;;;;;;;;;4444477;32;20439;-67
2024/04/06 11:50:38;;;;;;;10.10;9.25;;;;;;;;;;4436388;32;20056;-67
2024/04/06 11:53:04;;;;;;;4.53;1.47;;;;;;;;;;4444187;32;20089;-68
2024/04/06 11:55:29;;;;;;;5.78;1.62;;;;;;;;;;4451946;32;20150;-66
2024/04/06 11:57:54;;;;;;;3.72;2.03;;;;;;;;;;4451193;32;20397;-68
2024/04/06 12:00:20;;;;;;;3.97;1.58;;;;;;;;;;4451175;32;20178;-68
2024/04/06 12:02:45;;;;;;;4.78;1.73;;;;;;;;;;4431575;32;20046;-68
2024/04/06 12:05:10;;;;;;;2.97;1.60;;;;;;;;;;4438728;32;20071;-66
2024/04/06 12:07:38;;;;;;;3.35;1.70;;;;;;;;;;4423930;32;20064;-66
2024/04/06 12:10:05;;;;;;;4.07;2.35;;;;;;;;;;4436218;32;20030;-67
2024/04/06 12:12:30;;;;;;;3.60;1.58;;;;;;;;;;4450119;32;20029;-66
2024/04/06 12:14:55;;;;;;;4.87;1.50;;;;;;;;;;4436678;32;20088;-67
2024/04/06 12:17:27;;;;;;;4.03;1.63;;;;;;;;;;4439049;32;20331;-67
2024/04/06 12:19:55;;;;;;;5.10;2.10;;;;;;;;;;4450854;32;20120;-66
2024/04/06 12:22:21;;;;;;;6.32;2.17;;;;;;;;;;4452219;32;20064;-66
2024/04/06 12:24:46;;;;;;;4.97;1.60;;;;;;;;;;4440923;32;20375;-67
2024/04/06 12:27:14;;;;;;;2.85;1.70;;;;;;;;;;4435883;32;20094;-65
2024/04/06 12:29:39;;;;;;;4.15;1.60;;;;;;;;;;4434908;32;20029;-65
2024/04/06 12:32:05;;;;;;;6.87;1.80;;;;;;;;;;4444023;32;20025;-66
2024/04/06 12:34:30;;;;;;;5.18;1.80;;;;;;;;;;4451295;32;20150;-65
2024/04/06 12:37:00;;;;;;;4.22;1.45;;;;;;;;;;4439378;32;20086;-67
2024/04/06 12:39:25;;;;;;;2.17;1.35;;;;;;;;;;4436315;32;20026;-66
2024/04/06 12:41:50;;;;;;;4.30;2.40;;;;;;;;;;4436184;32;20022;-66
2024/04/06 12:44:15;;;;;;;2.08;1.40;;;;;;;;;;4435370;32;20021;-67
2024/04/06 12:46:41;;;;;;;15.53;2.10;;;;;;;;;;4434216;32;20080;-67
2024/04/06 12:49:06;;;;;;;4.15;1.75;;;;;;;;;;4435091;32;20186;-67
2024/04/06 12:51:31;;;;;;;4.97;2.50;;;;;;;;;;4434700;32;20417;-67
2024/04/06 12:53:56;;;;;;;4.15;1.90;;;;;;;;;;4436252;32;20120;-67
2024/04/06 12:56:21;;;;;;;4.30;1.53;;;;;;;;;;4436183;32;20110;-66
2024/04/06 12:58:46;;;;;;;2.87;2.33;;;;;;;;;;4435639;32;20120;-67
2024/04/06 13:01:12;;;;;;;2.43;1.90;;;;;;;;;;4450687;32;20142;-67
2024/04/06 13:03:37;;;;;;;3.15;1.80;;;;;;;;;;4445407;32;20132;-67
2024/04/06 13:06:03;;;;;;;2.75;1.55;;;;;;;;;;4451783;32;20048;-66
2024/04/06 13:08:29;;;;;;;5.07;1.95;;;;;;;;;;4444199;32;20390;-67
2024/04/06 13:10:55;;;;;;;5.35;1.92;;;;;;;;;;4435753;32;20018;-66
2024/04/06 13:13:20;;;;;;;3.50;2.00;;;;;;;;;;4448146;32;20155;-67
2024/04/06 13:15:47;;;;;;;7.40;2.00;;;;;;;;;;4447871;32;20506;-67
2024/04/06 13:18:12;;;;;;;3.97;2.20;;;;;;;;;;4446086;32;20069;-67
2024/04/06 13:20:38;;;;;;;6.07;1.90;;;;;;;;;;4440949;32;20017;-68
2024/04/06 13:23:04;;;;;;;7.85;2.70;;;;;;;;;;4451180;32;20068;-67
2024/04/06 13:25:29;;;;;;;7.18;1.80;;;;;;;;;;4449782;32;20117;-67
2024/04/06 13:27:57;;;;;;;5.30;2.05;;;;;;;;;;4450669;32;20025;-68
2024/04/06 13:30:23;;;;;;;4.68;2.67;;;;;;;;;;4428682;32;20109;-67
2024/04/06 13:32:48;;;;;;;4.07;1.80;;;;;;;;;;4434822;32;20339;-67
2024/04/06 13:35:13;;;;;;;6.90;2.00;;;;;;;;;;4436168;32;20048;-66
2024/04/06 13:37:39;;;;;;;4.15;2.20;;;;;;;;;;4437294;32;20055;-67
2024/04/06 13:40:07;;;;;;;2.70;1.80;;;;;;;;;;4450687;32;20047;-66
2024/04/06 13:42:33;;;;;;;4.45;1.70;;;;;;;;;;4450773;32;20073;-66
2024/04/06 13:44:59;;;;;;;8.20;2.50;;;;;;;;;;4450556;32;20030;-67
2024/04/06 13:47:25;;;;;;;4.97;3.08;;;;;;;;;;4449061;32;20085;-67
2024/04/06 13:49:50;;;;;;;6.57;3.20;;;;;;;;;;4449093;32;20097;-67
2024/04/06 13:52:15;;;;;;;5.43;2.17;;;;;;;;;;4450476;32;20048;-69
2024/04/06 13:54:40;;;;;;;5.20;1.90;;;;;;;;;;4449908;32;20029;-67
2024/04/06 13:57:05;;;;;;;6.57;2.17;;;;;;;;;;4450491;32;20112;-66
2024/04/06 13:59:31;;;;;;;6.55;1.85;;;;;;;;;;4449512;32;20135;-67
2024/04/06 14:01:56;;;;;;;3.87;2.05;;;;;;;;;;4427172;32;20044;-69
2024/04/06 14:04:21;;;;;;;4.27;2.10;;;;;;;;;;4434262;32;20375;-68
2024/04/06 14:06:47;;;;;;;5.45;2.12;;;;;;;;;;4434373;32;20151;-67
2024/04/06 14:09:14;;;;;;;4.37;2.17;;;;;;;;;;4435762;32;20077;-68
2024/04/06 14:11:40;;;;;;;9.70;2.15;;;;;;;;;;4434316;32;20121;-67
2024/04/06 14:14:14;;;;;;;3.37;1.95;;;;;;;;;;4435458;32;20033;-67
2024/04/06 14:16:39;;;;;;;5.28;1.80;;;;;;;;;;4434267;32;20045;-67
2024/04/06 14:19:04;;;;;;;4.63;1.93;;;;;;;;;;4436015;32;20053;-67
2024/04/06 14:21:30;;;;;;;3.33;1.60;;;;;;;;;;4443877;32;20174;-66
2024/04/06 14:23:55;;;;;;;8.25;2.15;;;;;;;;;;4435202;32;20124;-68
2024/04/06 14:26:20;;;;;;;3.83;1.48;;;;;;;;;;4443212;32;20112;-68